Time;durP1;ratioP1;P1;durP2;ratioP2;P2;SDS_P1;SDS_P2;PMS_P1;PMS_P2;Temp;Humidity;BMP_temperature;BMP_pressure;BME280_temperature;BME280_humidity;BME280_pressure;Samples;Min_cycle;Max_cycle;Signal;HPM_P1;HPM_P2
2023/05/10 00:02:07;;;;;;;6.03;5.63;;;;;;;11.68;69.35;95167.03;5021550;28;20224;-71
2023/05/10 00:04:33;;;;;;;6.37;5.87;;;;;;;11.61;68.90;95162.53;5024728;28;20300;-69
2023/05/10 00:06:58;;;;;;;5.90;5.50;;;;;;;11.66;68.99;95171.63;5021621;28;20217;-71
2023/05/10 00:09:24;;;;;;;6.30;5.80;;;;;;;11.70;68.88;95172.13;5021397;28;20242;-69
2023/05/10 00:11:50;;;;;;;6.20;5.70;;;;;;;11.70;68.18;95169.50;5022483;28;20410;-69
2023/05/10 00:14:15;;;;;;;5.97;5.27;;;;;;;11.50;69.32;95170.69;5023409;28;20228;-69
2023/05/10 00:16:41;;;;;;;6.20;5.60;;;;;;;11.57;69.00;95161.16;5018931;28;20281;-69
2023/05/10 00:19:06;;;;;;;5.53;5.13;;;;;;;11.52;69.49;95161.66;5018297;28;20185;-69
2023/05/10 00:21:33;;;;;;;6.50;6.00;;;;;;;11.48;69.38;95160.28;5015025;28;20233;-69
2023/05/10 00:23:59;;;;;;;6.87;6.37;;;;;;;11.48;68.72;95166.38;5021484;28;20225;-69
2023/05/10 00:26:24;;;;;;;7.30;6.78;;;;;;;11.37;69.88;95163.19;5031801;28;20226;-69
2023/05/10 00:28:50;;;;;;;6.63;6.13;;;;;;;11.48;69.11;95162.94;5029656;28;20332;-69
2023/05/10 00:31:15;;;;;;;6.47;6.07;;;;;;;11.42;68.85;95159.09;5025407;28;20181;-70
2023/05/10 00:33:40;;;;;;;6.70;6.27;;;;;;;11.41;68.87;95160.09;5031494;28;20221;-71
2023/05/10 00:36:07;;;;;;;6.40;5.90;;;;;;;11.40;68.67;95165.50;5031330;28;20233;-71
2023/05/10 00:38:33;;;;;;;7.90;7.30;;;;;;;11.44;68.48;95165.06;5025748;28;20693;-71
2023/05/10 00:40:58;;;;;;;7.10;6.60;;;;;;;11.29;68.94;95156.03;5028859;28;20236;-69
2023/05/10 00:43:24;;;;;;;7.90;7.20;;;;;;;11.26;68.77;95146.63;5037502;28;20196;-69
2023/05/10 00:45:49;;;;;;;7.73;7.17;;;;;;;11.36;69.05;95156.25;5029540;28;20221;-69
2023/05/10 00:48:15;;;;;;;7.50;6.90;;;;;;;11.31;68.73;95151.47;5026788;28;20225;-69
2023/05/10 00:50:41;;;;;;;7.23;6.67;;;;;;;11.20;69.40;95138.50;5041918;28;20283;-69
2023/05/10 00:53:07;;;;;;;7.37;6.87;;;;;;;11.22;69.77;95152.34;5027512;28;20244;-69
2023/05/10 00:55:32;;;;;;;7.63;7.03;;;;;;;11.26;69.09;95146.63;5033146;28;20501;-70
2023/05/10 00:57:58;;;;;;;7.60;6.73;;;;;;;11.25;68.98;95145.00;5028067;28;20768;-68
2023/05/10 01:00:23;;;;;;;7.87;7.27;;;;;;;11.18;69.19;95151.84;5031768;28;20232;-68
2023/05/10 01:02:49;;;;;;;8.37;7.67;;;;;;;11.33;68.92;95153.91;5024267;28;20240;-68
2023/05/10 01:05:15;;;;;;;8.07;7.47;;;;;;;11.23;69.36;95152.22;5025548;28;20228;-67
2023/05/10 01:07:41;;;;;;;7.50;6.87;;;;;;;11.35;68.91;95146.69;5027407;28;20225;-69
2023/05/10 01:10:07;;;;;;;6.80;6.30;;;;;;;11.36;68.31;95143.06;5030513;28;20181;-69
2023/05/10 01:12:39;;;;;;;7.57;7.03;;;;;;;11.42;67.49;95148.56;5031264;28;20268;-70
2023/05/10 01:15:07;;;;;;;8.53;7.50;;;;;;;11.15;68.47;95148.69;5049846;28;20309;-69
2023/05/10 01:17:35;;;;;;;8.53;7.73;;;;;;;11.07;69.37;95141.56;5046050;28;20217;-70
2023/05/10 01:20:00;;;;;;;7.60;7.00;;;;;;;11.04;69.24;95141.88;5031361;28;20255;-70
2023/05/10 01:22:45;;;;;;;8.30;7.70;;;;;;;11.00;69.44;95143.13;5026481;28;20198;-70
2023/05/10 01:25:41;;;;;;;7.87;7.30;;;;;;;11.00;69.78;95140.50;5031955;28;20335;-70
2023/05/10 01:28:26;;;;;;;7.83;7.23;;;;;;;11.04;69.53;95139.22;5045494;28;20221;-69
2023/05/10 01:30:58;;;;;;;7.37;6.83;;;;;;;11.03;69.53;95133.13;5020851;28;20256;-70
2023/05/10 01:33:54;;;;;;;7.40;6.87;;;;;;;11.10;68.04;95135.16;5039599;28;20271;-71
2023/05/10 01:36:43;;;;;;;6.50;6.00;;;;;;;11.01;68.70;95137.72;5028363;28;20240;-71
2023/05/10 01:39:17;;;;;;;6.53;5.93;;;;;;;11.10;68.02;95125.47;5030760;28;20261;-70
2023/05/10 01:41:57;;;;;;;6.77;6.27;;;;;;;11.02;68.34;95117.50;5028943;28;20364;-71
2023/05/10 01:45:04;;;;;;;5.80;5.30;;;;;;;10.93;67.98;95126.28;5028781;28;20238;-69
2023/05/10 01:47:29;;;;;;;5.27;4.87;;;;;;;10.40;68.63;95113.94;5031638;28;20253;-68
2023/05/10 01:49:56;;;;;;;4.70;4.40;;;;;;;10.55;67.25;95115.91;5030523;28;20217;-67
2023/05/10 01:52:33;;;;;;;4.77;4.37;;;;;;;10.54;67.45;95116.06;5030025;28;20193;-67
2023/05/10 01:55:02;;;;;;;4.67;4.37;;;;;;;10.46;68.03;95123.88;5028725;28;20229;-67
2023/05/10 01:57:33;;;;;;;4.53;4.23;;;;;;;10.44;67.74;95116.13;5020682;28;20248;-68
2023/05/10 02:00:01;;;;;;;4.53;4.13;;;;;;;10.46;67.76;95118.63;5020633;28;20232;-68
2023/05/10 02:02:28;;;;;;;4.20;3.90;;;;;;;10.40;67.29;95125.31;5021039;28;20246;-68
2023/05/10 02:04:56;;;;;;;4.17;3.67;;;;;;;10.19;66.13;95109.75;5029627;28;20200;-68
2023/05/10 02:07:23;;;;;;;4.53;4.23;;;;;;;10.24;66.56;95119.84;5039944;28;20462;-68
2023/05/10 02:09:50;;;;;;;4.10;3.80;;;;;;;10.30;65.54;95122.72;5031289;28;20221;-69
2023/05/10 02:12:17;;;;;;;4.37;3.97;;;;;;;10.20;65.88;95128.97;5030430;28;20283;-70
2023/05/10 02:14:43;;;;;;;4.10;3.80;;;;;;;10.27;64.86;95130.06;5028077;28;20690;-70
2023/05/10 02:17:09;;;;;;;3.97;3.63;;;;;;;9.84;64.56;95124.44;5036185;28;20229;-67
2023/05/10 02:19:39;;;;;;;3.50;3.30;;;;;;;9.88;63.58;95124.97;5028527;28;20215;-69
2023/05/10 02:22:06;;;;;;;3.77;3.33;;;;;;;9.71;62.04;95119.50;5031684;28;20240;-70
2023/05/10 02:24:33;;;;;;;3.63;3.33;;;;;;;9.49;62.19;95136.44;5025814;28;20225;-68
2023/05/10 02:27:00;;;;;;;4.67;3.90;;;;;;;9.45;61.88;95131.63;5026334;28;20229;-68
2023/05/10 02:29:28;;;;;;;3.77;3.37;;;;;;;9.46;61.12;95130.63;5026584;28;20222;-68
2023/05/10 02:31:55;;;;;;;3.60;3.30;;;;;;;9.35;60.80;95146.53;5023401;28;20189;-68
2023/05/10 02:34:27;;;;;;;4.30;3.53;;;;;;;9.32;58.99;95131.91;5026446;28;20197;-68
2023/05/10 02:36:53;;;;;;;6.00;3.93;;;;;;;9.31;61.25;95139.94;5023001;28;20280;-69
2023/05/10 02:39:20;;;;;;;6.93;3.97;;;;;;;9.31;60.84;95132.88;5029006;28;20241;-68
2023/05/10 02:41:48;;;;;;;5.07;3.80;;;;;;;9.39;60.02;95135.63;5021703;28;20229;-67
2023/05/10 02:44:16;;;;;;;4.07;3.67;;;;;;;9.19;59.74;95129.56;5028622;28;20245;-67
2023/05/10 02:46:42;;;;;;;4.40;4.00;;;;;;;9.19;60.96;95126.13;5027460;28;20191;-69
2023/05/10 02:49:07;;;;;;;4.67;4.30;;;;;;;9.39;60.83;95126.94;5010487;28;20328;-68
2023/05/10 02:51:36;;;;;;;4.53;4.13;;;;;;;9.30;60.13;95118.09;5042828;28;20327;-69
2023/05/10 02:54:10;;;;;;;5.47;4.20;;;;;;;9.08;61.45;95124.50;5023467;28;20250;-68
2023/05/10 02:56:39;;;;;;;4.70;4.30;;;;;;;8.88;61.84;95117.63;5007517;28;20608;-69
2023/05/10 02:59:05;;;;;;;4.63;4.20;;;;;;;9.06;62.43;95118.56;5022387;28;20225;-68
2023/05/10 03:01:30;;;;;;;4.90;4.50;;;;;;;9.23;61.17;95117.84;5045095;28;20212;-67
2023/05/10 03:03:56;;;;;;;6.17;4.50;;;;;;;9.16;61.83;95119.38;5024157;28;20237;-67
2023/05/10 03:06:21;;;;;;;6.97;4.40;;;;;;;9.15;61.72;95122.16;5045288;28;20220;-67
2023/05/10 03:08:47;;;;;;;4.03;3.63;;;;;;;9.12;61.01;95118.00;5023510;28;20265;-67
2023/05/10 03:11:20;;;;;;;4.37;4.07;;;;;;;9.02;61.67;95115.38;5022422;28;20231;-68
2023/05/10 03:13:56;;;;;;;5.37;4.40;;;;;;;8.81;62.46;95133.88;5026607;28;20186;-67
2023/05/10 03:16:27;;;;;;;4.63;4.20;;;;;;;9.08;62.16;95127.13;5023271;28;20193;-66
2023/05/10 03:19:10;;;;;;;4.50;4.20;;;;;;;9.05;62.29;95132.66;5027384;28;20228;-66
2023/05/10 03:21:41;;;;;;;5.10;4.67;;;;;;;8.95;62.71;95135.25;5024795;28;20789;-67
2023/05/10 03:24:08;;;;;;;4.47;4.07;;;;;;;9.08;62.50;95132.34;5027041;28;20214;-68
2023/05/10 03:26:35;;;;;;;6.30;4.10;;;;;;;9.26;61.59;95132.47;5040033;28;20218;-66
2023/05/10 03:29:02;;;;;;;4.10;3.70;;;;;;;9.46;61.00;95130.63;5024258;28;20712;-65
2023/05/10 03:31:27;;;;;;;4.77;4.40;;;;;;;9.48;60.50;95136.56;5025959;28;20174;-67
2023/05/10 03:33:53;;;;;;;4.50;4.10;;;;;;;9.43;60.32;95139.63;5024733;28;20225;-67
2023/05/10 03:36:19;;;;;;;4.03;3.67;;;;;;;9.44;60.34;95143.09;5026805;28;20222;-66
2023/05/10 03:38:45;;;;;;;5.13;4.33;;;;;;;9.30;59.93;95136.47;5028503;28;20236;-67
2023/05/10 03:41:10;;;;;;;5.17;3.57;;;;;;;9.33;59.96;95143.22;5027722;28;20241;-67
2023/05/10 03:43:36;;;;;;;4.40;4.10;;;;;;;9.17;59.91;95144.66;5028478;28;20209;-68
2023/05/10 03:46:05;;;;;;;4.30;4.00;;;;;;;9.32;59.91;95145.03;5025425;28;20263;-69
2023/05/10 03:48:34;;;;;;;4.70;4.30;;;;;;;9.37;60.92;95140.19;5017746;28;20236;-69
2023/05/10 03:51:00;;;;;;;4.70;4.23;;;;;;;9.53;60.13;95142.22;5020116;28;20222;-66
2023/05/10 03:53:26;;;;;;;4.53;4.13;;;;;;;9.50;60.25;95145.97;5029133;28;20233;-66
2023/05/10 03:55:52;;;;;;;5.13;4.33;;;;;;;9.65;60.32;95138.47;5036616;28;20182;-67
2023/05/10 03:58:18;;;;;;;4.67;4.27;;;;;;;9.83;59.88;95148.22;5027128;28;20239;-67
2023/05/10 04:00:44;;;;;;;5.67;4.83;;;;;;;9.72;60.51;95155.28;5026494;28;20228;-66
2023/05/10 04:03:13;;;;;;;5.37;4.67;;;;;;;9.85;60.24;95151.53;5024843;28;20246;-68
2023/05/10 04:05:39;;;;;;;4.63;4.33;;;;;;;9.82;60.37;95154.44;5027626;28;20228;-66
2023/05/10 04:08:05;;;;;;;4.93;4.43;;;;;;;9.87;60.09;95160.09;5044635;28;20237;-67
2023/05/10 04:10:31;;;;;;;4.47;3.97;;;;;;;9.82;59.47;95157.91;5020278;28;20179;-69
2023/05/10 04:12:56;;;;;;;7.30;5.10;;;;;;;9.82;59.39;95157.06;5027874;28;20262;-68
2023/05/10 04:15:22;;;;;;;4.97;4.20;;;;;;;9.76;59.59;95158.47;5022210;28;20667;-67
2023/05/10 04:17:47;;;;;;;4.97;4.47;;;;;;;9.74;59.88;95160.41;5023489;28;20235;-68
2023/05/10 04:20:13;;;;;;;4.67;4.23;;;;;;;9.81;59.23;95165.91;5020629;28;20245;-67
2023/05/10 04:22:39;;;;;;;5.07;4.57;;;;;;;9.77;59.68;95165.38;5020585;28;20220;-68
2023/05/10 04:25:05;;;;;;;5.30;4.53;;;;;;;9.77;59.81;95160.13;5025822;28;20186;-67
2023/05/10 04:27:31;;;;;;;4.93;4.43;;;;;;;9.88;59.59;95164.38;5025017;28;20217;-68
2023/05/10 04:29:57;;;;;;;5.67;4.80;;;;;;;9.88;60.32;95167.81;5019202;28;20220;-69
2023/05/10 04:32:23;;;;;;;6.77;5.20;;;;;;;9.97;60.00;95157.41;5026667;28;20311;-69
2023/05/10 04:34:48;;;;;;;5.20;4.70;;;;;;;9.86;60.31;95163.69;5039770;28;20189;-68
2023/05/10 04:37:14;;;;;;;5.27;4.87;;;;;;;9.86;60.41;95163.69;5019465;28;20181;-68
2023/05/10 04:39:39;;;;;;;5.37;4.80;;;;;;;9.74;61.29;95170.09;5023051;28;20253;-68
2023/05/10 04:42:05;;;;;;;5.23;4.77;;;;;;;9.80;61.71;95170.34;5029575;28;20233;-68
2023/05/10 04:44:34;;;;;;;9.90;5.07;;;;;;;9.90;60.90;95165.88;5032288;28;20245;-70
2023/05/10 04:46:59;;;;;;;5.33;4.80;;;;;;;9.87;60.38;95165.34;5020127;28;20230;-70
2023/05/10 04:49:25;;;;;;;5.57;4.87;;;;;;;9.99;60.14;95166.00;5025468;28;20200;-70
2023/05/10 04:51:50;;;;;;;4.83;4.07;;;;;;;10.01;59.60;95161.44;5024850;28;20229;-70
2023/05/10 04:54:16;;;;;;;5.03;4.63;;;;;;;9.98;60.45;95162.53;5029427;28;20237;-71
2023/05/10 04:56:41;;;;;;;5.00;4.60;;;;;;;10.06;60.00;95159.19;5023214;28;20220;-70
2023/05/10 04:59:07;;;;;;;5.40;4.90;;;;;;;10.05;59.90;95154.88;5026346;28;20328;-70
2023/05/10 05:01:32;;;;;;;5.17;4.57;;;;;;;10.08;59.61;95152.81;5029274;28;20283;-71
2023/05/10 05:03:59;;;;;;;5.00;4.50;;;;;;;10.14;58.99;95157.50;5023401;28;20236;-70
2023/05/10 05:06:24;;;;;;;4.93;4.40;;;;;;;10.21;59.06;95157.75;5023062;28;20221;-69
2023/05/10 05:08:50;;;;;;;5.57;4.53;;;;;;;10.27;59.06;95166.84;5029290;28;20700;-69
2023/05/10 05:11:19;;;;;;;6.33;5.27;;;;;;;10.25;59.44;95163.53;5036097;28;20225;-69
2023/05/10 05:13:44;;;;;;;5.83;5.33;;;;;;;10.38;58.75;95166.69;5023825;28;20201;-69
2023/05/10 05:16:11;;;;;;;7.93;4.97;;;;;;;10.36;59.06;95165.97;5029556;28;20190;-70
2023/05/10 05:18:36;;;;;;;5.73;5.23;;;;;;;10.30;59.59;95171.84;5029180;28;20315;-71
2023/05/10 05:21:02;;;;;;;6.37;5.77;;;;;;;10.41;59.28;95174.25;5026361;28;20738;-71
2023/05/10 05:23:27;;;;;;;6.47;5.87;;;;;;;10.34;60.23;95168.78;5019846;28;20244;-70
2023/05/10 05:25:53;;;;;;;6.20;5.60;;;;;;;9.92;60.92;95173.63;5025241;28;20199;-70
2023/05/10 05:28:22;;;;;;;6.30;5.70;;;;;;;9.86;61.79;95176.81;5025577;28;20228;-71
2023/05/10 05:30:48;;;;;;;6.40;5.77;;;;;;;9.98;61.23;95188.00;5018883;28;20243;-73
2023/05/10 05:33:15;;;;;;;6.47;5.50;;;;;;;10.10;60.01;95186.81;5038805;28;20225;-75
2023/05/10 05:35:41;;;;;;;6.23;5.63;;;;;;;10.15;60.23;95187.22;5029038;28;20229;-73
2023/05/10 05:38:06;;;;;;;5.67;5.17;;;;;;;10.19;60.41;95188.59;5027760;28;20225;-72
2023/05/10 05:40:32;;;;;;;6.73;6.13;;;;;;;10.18;60.71;95178.22;5021006;28;20217;-73
2023/05/10 05:42:57;;;;;;;6.50;5.90;;;;;;;10.32;60.29;95183.03;5026680;28;20232;-73
2023/05/10 05:45:22;;;;;;;6.57;5.90;;;;;;;10.33;60.82;95182.88;5027733;28;20232;-74
2023/05/10 05:47:48;;;;;;;8.20;7.00;;;;;;;10.28;60.84;95173.78;5025230;28;20225;-70
2023/05/10 05:50:14;;;;;;;8.23;7.27;;;;;;;10.29;60.86;95186.78;5024804;28;20225;-68
2023/05/10 05:52:39;;;;;;;7.30;6.70;;;;;;;10.13;61.61;95181.25;5036115;28;20190;-66
2023/05/10 05:55:05;;;;;;;8.20;7.50;;;;;;;10.19;61.52;95187.78;5024346;28;20271;-72
2023/05/10 05:57:31;;;;;;;7.60;6.67;;;;;;;10.13;61.70;95200.50;5022278;28;20382;-65
2023/05/10 05:59:56;;;;;;;10.07;9.07;;;;;;;10.05;62.41;95200.41;5014622;28;20240;-69
2023/05/10 06:02:21;;;;;;;8.80;7.20;;;;;;;10.04;63.25;95193.47;5020122;28;20222;-68
2023/05/10 06:04:47;;;;;;;8.77;7.97;;;;;;;10.03;63.06;95199.72;5019916;28;20228;-74
2023/05/10 06:07:12;;;;;;;10.53;8.33;;;;;;;10.07;62.88;95187.09;5017545;28;20228;-74
2023/05/10 06:09:38;;;;;;;9.07;8.27;;;;;;;10.18;63.89;95200.06;5012601;28;20344;-66
2023/05/10 06:12:03;;;;;;;9.30;8.40;;;;;;;10.13;63.82;95197.88;5013789;28;20329;-68
2023/05/10 06:14:29;;;;;;;9.13;7.70;;;;;;;10.06;63.98;95196.78;5019857;28;20224;-70
2023/05/10 06:16:54;;;;;;;9.00;8.20;;;;;;;10.23;63.20;95197.00;5015561;28;20193;-70
2023/05/10 06:19:20;;;;;;;9.53;8.50;;;;;;;10.20;62.97;95197.28;5012233;28;20189;-67
2023/05/10 06:21:45;;;;;;;9.23;8.20;;;;;;;10.21;63.31;95193.69;5028259;28;20245;-68
2023/05/10 06:24:11;;;;;;;8.97;8.07;;;;;;;10.28;63.21;95202.69;5013920;28;20306;-70
2023/05/10 06:26:36;;;;;;;8.43;7.50;;;;;;;10.33;62.63;95195.19;5013780;28;20609;-69
2023/05/10 06:29:02;;;;;;;8.23;7.40;;;;;;;10.35;62.27;95206.41;5026095;28;20578;-71
2023/05/10 06:31:27;;;;;;;8.83;8.03;;;;;;;10.37;61.49;95201.81;5011284;28;20209;-71
2023/05/10 06:33:53;;;;;;;8.93;7.80;;;;;;;10.50;61.38;95210.16;5008118;28;20240;-71
2023/05/10 06:36:18;;;;;;;8.93;7.90;;;;;;;10.31;61.79;95203.22;5015798;28;20226;-70
2023/05/10 06:38:44;;;;;;;9.43;8.43;;;;;;;10.26;62.07;95217.72;5012968;28;20226;-69
2023/05/10 06:41:09;;;;;;;8.67;7.87;;;;;;;10.30;62.22;95206.00;5018154;28;20271;-70
2023/05/10 06:43:35;;;;;;;8.83;7.93;;;;;;;10.35;61.86;95203.78;5014434;28;20189;-74
2023/05/10 06:46:00;;;;;;;9.37;8.47;;;;;;;10.31;61.36;95212.91;5016551;28;20239;-68
2023/05/10 06:48:25;;;;;;;8.53;7.67;;;;;;;10.43;60.81;95205.69;5016841;28;20225;-69
2023/05/10 06:50:51;;;;;;;9.10;7.70;;;;;;;10.42;60.80;95202.19;5011510;28;20222;-76
2023/05/10 06:53:17;;;;;;;8.80;7.90;;;;;;;10.42;60.87;95209.25;5010796;28;20226;-70
2023/05/10 06:55:42;;;;;;;8.80;7.90;;;;;;;10.36;60.52;95208.03;5013013;28;20248;-70
2023/05/10 06:58:08;;;;;;;8.40;7.60;;;;;;;10.24;60.31;95215.28;5015745;28;20291;-68
2023/05/10 07:00:33;;;;;;;7.47;6.77;;;;;;;10.10;60.56;95211.31;5013290;28;20232;-68
2023/05/10 07:02:58;;;;;;;9.07;8.07;;;;;;;10.26;60.99;95207.22;5008621;28;20237;-67
2023/05/10 07:05:24;;;;;;;8.27;7.47;;;;;;;10.29;60.10;95209.59;5011179;28;20241;-70
2023/05/10 07:07:50;;;;;;;10.17;8.23;;;;;;;10.14;60.90;95215.28;5032324;28;20184;-69
2023/05/10 07:10:15;;;;;;;10.60;8.23;;;;;;;10.29;60.58;95220.94;5008384;28;20207;-70
2023/05/10 07:12:41;;;;;;;8.57;7.70;;;;;;;10.33;58.96;95218.84;5027273;28;20217;-69
2023/05/10 07:15:07;;;;;;;8.27;7.43;;;;;;;10.08;60.43;95226.38;5006672;28;20233;-68
2023/05/10 07:17:33;;;;;;;8.20;7.40;;;;;;;10.11;60.73;95214.75;5013334;28;20457;-69
2023/05/10 07:19:59;;;;;;;7.87;7.07;;;;;;;10.17;60.22;95219.44;5027188;28;20236;-70
2023/05/10 07:22:25;;;;;;;8.40;7.63;;;;;;;10.21;59.72;95223.44;5007484;28;20731;-73
2023/05/10 07:24:50;;;;;;;8.40;7.20;;;;;;;10.14;60.17;95222.34;5002057;28;20316;-69
2023/05/10 07:27:16;;;;;;;8.43;7.50;;;;;;;10.08;59.80;95218.50;5014708;28;20230;-68
2023/05/10 07:29:42;;;;;;;8.73;7.83;;;;;;;10.10;60.46;95223.59;5017299;28;20279;-68
2023/05/10 07:32:07;;;;;;;9.70;7.87;;;;;;;10.18;60.13;95226.34;5011772;28;20244;-68
2023/05/10 07:34:32;;;;;;;9.47;8.57;;;;;;;10.26;60.21;95233.50;5015475;28;20288;-67
2023/05/10 07:36:59;;;;;;;11.53;8.00;;;;;;;10.29;59.79;95227.97;5010763;28;20222;-66
2023/05/10 07:39:24;;;;;;;9.13;8.23;;;;;;;10.23;60.06;95234.63;5012488;28;20285;-68
2023/05/10 07:41:50;;;;;;;9.77;8.20;;;;;;;10.26;60.36;95241.38;5007788;28;20237;-69
2023/05/10 07:44:18;;;;;;;13.00;8.73;;;;;;;10.18;60.50;95241.28;5018154;28;20232;-69
2023/05/10 07:46:43;;;;;;;9.80;8.80;;;;;;;10.26;60.63;95250.09;5017961;28;20383;-67
2023/05/10 07:49:09;;;;;;;9.10;8.30;;;;;;;10.22;59.85;95232.16;5009819;28;20304;-66
2023/05/10 07:51:38;;;;;;;10.50;8.10;;;;;;;10.24;59.67;95224.97;5007753;28;20217;-66
2023/05/10 07:54:03;;;;;;;10.90;9.17;;;;;;;10.34;60.54;95241.53;5009607;28;20226;-67
2023/05/10 07:56:32;;;;;;;8.97;7.90;;;;;;;10.45;58.87;95232.63;5015477;28;20292;-76
2023/05/10 07:59:03;;;;;;;10.33;9.33;;;;;;;10.43;60.12;95237.22;5015969;28;20201;-64
2023/05/10 08:01:34;;;;;;;8.83;8.13;;;;;;;10.51;58.82;95240.78;5027490;28;20210;-65
2023/05/10 08:04:00;;;;;;;8.27;7.57;;;;;;;10.34;58.63;95241.53;5025332;28;20272;-70
2023/05/10 08:06:29;;;;;;;10.37;9.30;;;;;;;10.32;59.58;95244.31;5029575;28;20221;-64
2023/05/10 08:08:56;;;;;;;9.80;8.90;;;;;;;10.41;59.44;95247.88;5025799;28;20229;-67
2023/05/10 08:11:22;;;;;;;9.47;8.57;;;;;;;10.53;58.59;95243.22;5028949;28;20225;-68
2023/05/10 08:13:49;;;;;;;9.43;8.53;;;;;;;10.64;58.20;95242.22;5025270;28;20241;-69
2023/05/10 08:16:15;;;;;;;9.80;8.90;;;;;;;10.49;58.22;95232.19;5025755;28;20193;-70
2023/05/10 08:18:41;;;;;;;10.70;8.80;;;;;;;10.50;58.59;95230.38;5024467;28;20279;-71
2023/05/10 08:21:06;;;;;;;15.83;9.53;;;;;;;10.69;58.35;95235.56;5025137;28;20229;-68
2023/05/10 08:23:32;;;;;;;9.57;8.60;;;;;;;10.62;58.10;95239.75;5020588;28;20313;-69
2023/05/10 08:25:57;;;;;;;9.10;8.20;;;;;;;10.55;57.85;95233.41;5032024;28;20196;-68
2023/05/10 08:28:23;;;;;;;9.17;8.27;;;;;;;10.55;57.70;95247.38;5047203;28;20189;-71
2023/05/10 08:30:50;;;;;;;10.83;7.90;;;;;;;10.48;58.06;95243.69;5023887;28;20221;-68
2023/05/10 08:33:17;;;;;;;8.83;8.07;;;;;;;10.51;58.37;95245.22;5025225;28;20235;-68
2023/05/10 08:35:42;;;;;;;8.33;7.57;;;;;;;10.36;58.41;95248.28;5026213;28;20226;-67
2023/05/10 08:38:08;;;;;;;8.70;6.90;;;;;;;10.53;58.68;95238.81;5029936;28;20232;-69
2023/05/10 08:40:35;;;;;;;8.53;7.60;;;;;;;10.63;58.32;95245.81;5030108;28;20213;-67
2023/05/10 08:43:09;;;;;;;8.73;7.93;;;;;;;10.75;59.96;95247.28;5027102;28;20230;-69
2023/05/10 08:45:41;;;;;;;9.30;8.47;;;;;;;10.71;59.89;95238.84;5023733;28;20217;-69
2023/05/10 08:48:10;;;;;;;11.43;10.40;;;;;;;10.83;61.01;95247.38;5025631;28;20222;-69
2023/05/10 08:50:40;;;;;;;13.68;12.48;;;;;;;10.83;61.25;95242.13;5020940;28;20229;-70
2023/05/10 08:53:11;;;;;;;10.70;9.63;;;;;;;11.00;61.11;95251.00;5021996;28;20240;-69
2023/05/10 08:55:38;;;;;;;12.45;11.25;;;;;;;11.04;60.63;95240.03;5023661;28;20288;-68
2023/05/10 08:58:05;;;;;;;10.17;9.17;;;;;;;11.09;60.20;95244.03;5030196;28;20313;-67
2023/05/10 09:00:31;;;;;;;10.13;9.13;;;;;;;11.00;60.41;95241.31;5029902;28;20224;-71
2023/05/10 09:02:58;;;;;;;9.87;9.07;;;;;;;11.12;60.41;95244.56;5021044;28;20242;-71
2023/05/10 09:05:24;;;;;;;9.82;8.93;;;;;;;11.16;59.69;95247.72;5025922;28;20296;-71
2023/05/10 09:07:49;;;;;;;14.32;8.70;;;;;;;11.04;59.38;95240.03;5028312;28;20183;-71
2023/05/10 09:10:15;;;;;;;10.37;9.50;;;;;;;11.02;60.45;95249.88;5034106;28;20290;-69
2023/05/10 09:12:41;;;;;;;10.40;9.40;;;;;;;11.11;59.98;95249.97;5029009;28;20352;-68
2023/05/10 09:15:08;;;;;;;9.47;8.07;;;;;;;10.98;58.92;95251.16;5030595;28;20276;-66
2023/05/10 09:17:34;;;;;;;10.50;9.45;;;;;;;10.74;60.19;95245.63;5025123;28;20225;-66
2023/05/10 09:20:01;;;;;;;10.38;9.25;;;;;;;10.76;60.96;95238.41;5033074;28;20233;-69
2023/05/10 09:22:27;;;;;;;10.00;9.03;;;;;;;10.71;61.32;95238.03;5026452;28;20189;-70
2023/05/10 09:25:10;;;;;;;9.57;8.77;;;;;;;10.75;59.83;95229.72;5028862;28;20232;-68
2023/05/10 09:27:37;;;;;;;11.02;10.13;;;;;;;10.91;60.72;95233.50;5023874;28;20315;-70
2023/05/10 09:30:05;;;;;;;10.68;9.40;;;;;;;10.87;60.34;95235.56;5022788;28;20268;-68
2023/05/10 09:32:41;;;;;;;8.23;7.45;;;;;;;10.81;58.60;95228.28;5019261;28;20226;-69
2023/05/10 09:35:14;;;;;;;12.07;10.93;;;;;;;10.79;60.27;95233.69;5029670;28;20241;-69
2023/05/10 09:38:07;;;;;;;11.27;10.17;;;;;;;10.89;59.70;95235.44;5039335;28;20454;-69
2023/05/10 09:40:34;;;;;;;9.20;8.47;;;;;;;11.04;59.54;95223.44;5021944;28;20238;-69
2023/05/10 09:43:06;;;;;;;8.57;7.87;;;;;;;10.99;59.06;95229.13;5027158;28;20455;-69
2023/05/10 09:45:35;;;;;;;10.33;9.23;;;;;;;11.00;60.12;95230.78;5021310;28;20229;-69
2023/05/10 09:48:02;;;;;;;9.38;8.57;;;;;;;11.12;58.61;95225.28;5028413;28;20275;-70
2023/05/10 09:50:29;;;;;;;9.25;8.55;;;;;;;11.11;58.60;95229.72;5029073;28;20221;-69
2023/05/10 09:52:59;;;;;;;8.80;8.07;;;;;;;11.08;58.87;95218.69;5025701;28;20216;-69
2023/05/10 09:55:38;;;;;;;9.20;8.40;;;;;;;11.20;58.33;95228.00;5020869;28;20240;-69
2023/05/10 09:58:04;;;;;;;8.88;8.15;;;;;;;11.19;57.21;95218.47;5021621;28;20233;-69
2023/05/10 10:00:35;;;;;;;8.50;7.03;;;;;;;11.16;57.21;95221.41;5041187;28;20233;-69
2023/05/10 10:03:01;;;;;;;9.13;8.32;;;;;;;11.16;58.16;95221.41;5027048;28;20234;-69
2023/05/10 10:05:34;;;;;;;8.67;7.23;;;;;;;11.11;58.18;95218.38;5025974;28;20234;-68
2023/05/10 10:08:03;;;;;;;7.67;6.97;;;;;;;11.25;57.09;95208.19;5025233;28;20229;-68
2023/05/10 10:10:29;;;;;;;10.67;8.17;;;;;;;11.32;57.16;95216.28;5027507;28;20185;-70
2023/05/10 10:12:55;;;;;;;11.40;7.43;;;;;;;10.98;57.58;95209.03;5025604;28;20238;-69
2023/05/10 10:15:22;;;;;;;7.40;6.80;;;;;;;11.09;57.48;95200.09;5032660;28;20294;-68
2023/05/10 10:17:49;;;;;;;7.50;6.90;;;;;;;11.18;57.32;95203.66;5025001;28;20232;-67
2023/05/10 10:20:16;;;;;;;8.50;7.73;;;;;;;11.34;57.24;95198.53;5031825;28;20247;-68
2023/05/10 10:22:43;;;;;;;6.75;6.10;;;;;;;11.33;56.45;95194.22;5023084;28;20198;-69
2023/05/10 10:25:10;;;;;;;7.15;6.55;;;;;;;11.42;56.32;95195.97;5040536;28;20248;-70
2023/05/10 10:27:45;;;;;;;7.23;6.63;;;;;;;11.35;56.71;95204.63;5026139;28;20292;-69
2023/05/10 10:30:30;;;;;;;7.60;6.65;;;;;;;11.50;56.59;95203.09;5022856;28;20217;-70
2023/05/10 10:33:10;;;;;;;7.47;6.20;;;;;;;11.53;56.38;95196.72;5023353;28;20217;-69
2023/05/10 10:35:36;;;;;;;7.60;6.70;;;;;;;11.44;57.15;95199.28;5022431;28;20221;-69
2023/05/10 10:38:02;;;;;;;7.82;5.93;;;;;;;11.27;56.83;95200.09;5041260;28;20286;-69
2023/05/10 10:40:32;;;;;;;7.47;6.00;;;;;;;11.24;56.74;95209.13;5029710;28;20209;-70
2023/05/10 10:43:25;;;;;;;8.00;6.37;;;;;;;11.12;57.57;95209.50;5019859;28;20286;-71
2023/05/10 10:46:13;;;;;;;7.17;6.47;;;;;;;11.31;57.34;95209.38;5026265;28;20221;-70
2023/05/10 10:48:39;;;;;;;6.97;5.97;;;;;;;11.33;56.47;95210.03;5042986;28;20213;-71
2023/05/10 10:51:04;;;;;;;6.68;6.05;;;;;;;11.34;56.82;95200.34;5027747;28;20225;-70
2023/05/10 10:53:30;;;;;;;8.60;6.30;;;;;;;11.59;56.35;95194.28;5023343;28;20236;-70
2023/05/10 10:56:09;;;;;;;7.40;6.27;;;;;;;11.68;55.87;95201.28;5026293;28;20192;-71
2023/05/10 10:58:37;;;;;;;7.70;6.13;;;;;;;11.70;55.31;95204.56;5017762;28;20197;-68
2023/05/10 11:01:15;;;;;;;7.50;6.32;;;;;;;11.55;55.86;95205.28;5025856;28;20250;-69
2023/05/10 11:03:41;;;;;;;6.80;6.10;;;;;;;11.67;55.35;95215.41;5019728;28;20246;-69
2023/05/10 11:06:07;;;;;;;8.33;6.43;;;;;;;11.72;55.66;95208.88;5026627;28;20241;-70
2023/05/10 11:08:40;;;;;;;6.03;5.50;;;;;;;11.67;55.33;95206.69;5029518;28;20308;-70
2023/05/10 11:11:07;;;;;;;6.95;6.30;;;;;;;11.70;55.36;95199.28;5026934;28;20290;-69
2023/05/10 11:13:34;;;;;;;8.55;5.85;;;;;;;11.84;55.46;95202.34;5025468;28;20224;-69
2023/05/10 11:16:30;;;;;;;6.13;5.53;;;;;;;11.96;54.18;95198.50;5037173;28;20304;-67
2023/05/10 11:19:04;;;;;;;6.20;5.60;;;;;;;12.06;54.32;95198.41;5029461;28;20253;-71
2023/05/10 11:21:33;;;;;;;6.20;5.63;;;;;;;12.16;54.18;95198.28;5021104;28;20240;-70
2023/05/10 11:24:00;;;;;;;7.50;6.00;;;;;;;12.24;54.25;95211.50;5028763;28;20707;-69
2023/05/10 11:26:31;;;;;;;7.13;6.30;;;;;;;12.23;54.31;95202.75;5036406;28;20249;-70
2023/05/10 11:28:58;;;;;;;6.63;5.90;;;;;;;12.33;54.18;95211.38;5020207;28;20195;-72
2023/05/10 11:31:26;;;;;;;7.35;6.65;;;;;;;12.41;54.42;95212.41;5016611;28;20186;-71
2023/05/10 11:33:56;;;;;;;6.23;5.50;;;;;;;12.31;53.83;95209.91;5020221;28;20229;-70
2023/05/10 11:36:27;;;;;;;7.38;5.30;;;;;;;12.06;53.99;95203.69;5022448;28;20316;-73
2023/05/10 11:38:53;;;;;;;6.67;5.60;;;;;;;11.87;54.87;95199.44;5025357;28;20221;-72